createdAt,value
2023-05-17T00:02:14.728Z,28.90
2023-05-17T00:04:42.497Z,28.90
2023-05-17T00:07:10.165Z,28.90
2023-05-17T00:09:39.193Z,28.90
2023-05-17T00:12:07.211Z,28.90
2023-05-17T00:14:35.807Z,28.90
2023-05-17T00:17:03.477Z,28.90
2023-05-17T00:19:31.172Z,28.90
2023-05-17T00:21:58.839Z,28.90
2023-05-17T00:24:27.303Z,28.90
2023-05-17T00:26:56.374Z,28.90
2023-05-17T00:29:24.035Z,28.90
2023-05-17T00:31:51.732Z,28.90
2023-05-17T00:34:19.483Z,28.90
2023-05-17T00:36:47.152Z,28.90
2023-05-17T00:39:14.821Z,28.80
2023-05-17T00:41:42.603Z,28.80
2023-05-17T00:44:11.641Z,28.80
2023-05-17T00:46:39.322Z,28.80
2023-05-17T00:49:07.397Z,28.80
2023-05-17T00:51:36.493Z,28.80
2023-05-17T00:54:05.379Z,28.80
2023-05-17T00:56:33.611Z,28.80
2023-05-17T00:59:01.653Z,28.80
2023-05-17T01:01:31.285Z,28.80
2023-05-17T01:03:59.161Z,28.80
2023-05-17T01:06:26.936Z,28.80
2023-05-17T01:08:54.819Z,28.80
2023-05-17T01:11:33.240Z,28.70
2023-05-17T01:14:10.384Z,28.80
2023-05-17T01:16:45.327Z,28.70
2023-05-17T01:19:22.035Z,28.70
2023-05-17T01:22:03.872Z,28.70
2023-05-17T01:24:39.535Z,28.70
2023-05-17T01:27:10.040Z,28.70
2023-05-17T01:29:39.934Z,28.70
2023-05-17T01:32:09.588Z,28.70
2023-05-17T01:34:37.261Z,28.70
2023-05-17T01:37:05.251Z,28.70
2023-05-17T01:39:32.986Z,28.70
2023-05-17T01:42:06.079Z,28.70
2023-05-17T01:44:44.452Z,28.70
2023-05-17T01:47:16.736Z,28.70
2023-05-17T01:49:49.126Z,28.60
2023-05-17T01:52:25.404Z,28.60
2023-05-17T01:55:11.583Z,28.60
2023-05-17T01:57:41.188Z,28.60
2023-05-17T02:00:13.115Z,28.60
2023-05-17T02:02:40.994Z,28.60
2023-05-17T02:05:09.578Z,28.60
2023-05-17T02:07:37.377Z,28.60
2023-05-17T02:10:05.734Z,28.60
2023-05-17T02:12:33.400Z,28.60
2023-05-17T02:15:01.042Z,28.60
2023-05-17T02:17:30.173Z,28.50
2023-05-17T02:19:57.869Z,28.50
2023-05-17T02:22:25.539Z,28.50
2023-05-17T02:24:53.345Z,28.50
2023-05-17T02:27:22.560Z,28.50
2023-05-17T02:29:50.333Z,28.50
2023-05-17T02:32:18.039Z,28.50
2023-05-17T02:34:47.085Z,28.50
2023-05-17T02:37:14.801Z,28.50
2023-05-17T02:39:42.476Z,28.50
2023-05-17T02:42:10.114Z,28.50
2023-05-17T02:44:37.818Z,28.50
2023-05-17T02:47:06.052Z,28.50
2023-05-17T02:49:33.874Z,28.50
2023-05-17T02:52:03.217Z,28.50
2023-05-17T02:54:31.019Z,28.50
2023-05-17T02:56:58.692Z,28.40
2023-05-17T02:59:26.361Z,28.40
2023-05-17T03:01:54.059Z,28.40
2023-05-17T03:04:21.762Z,28.40
2023-05-17T03:06:50.854Z,28.40
2023-05-17T03:09:20.851Z,28.40
2023-05-17T03:11:49.051Z,28.40
2023-05-17T03:14:16.755Z,28.40
2023-05-17T03:16:44.438Z,28.40
2023-05-17T03:19:12.250Z,28.40
2023-05-17T03:21:40.190Z,28.40
2023-05-17T03:24:08.331Z,28.40
2023-05-17T03:26:37.364Z,28.40
2023-05-17T03:29:05.191Z,28.30
2023-05-17T03:31:33.119Z,28.30
2023-05-17T03:34:00.876Z,28.30
2023-05-17T03:36:28.555Z,28.30
2023-05-17T03:38:56.210Z,28.30
2023-05-17T03:41:24.192Z,28.30
2023-05-17T03:43:53.256Z,28.30
2023-05-17T03:46:21.063Z,28.30
2023-05-17T03:48:48.802Z,28.30
2023-05-17T03:51:17.158Z,28.30
2023-05-17T03:53:44.861Z,28.30
2023-05-17T03:56:12.555Z,28.30
2023-05-17T03:58:40.269Z,28.30
2023-05-17T04:01:09.674Z,28.30
2023-05-17T04:03:37.974Z,28.30
2023-05-17T04:06:07.368Z,28.30
2023-05-17T04:08:35.123Z,28.20
2023-05-17T04:11:10.078Z,28.20
2023-05-17T04:13:37.958Z,28.20
2023-05-17T04:16:06.332Z,28.20
2023-05-17T04:18:37.124Z,28.20
2023-05-17T04:21:05.604Z,28.20
2023-05-17T04:23:33.634Z,28.20
2023-05-17T04:26:01.393Z,28.20
2023-05-17T04:28:29.056Z,28.20
2023-05-17T04:30:57.319Z,28.20
2023-05-17T04:33:25.275Z,28.20
2023-05-17T04:35:56.765Z,28.20
2023-05-17T04:38:24.724Z,28.20
2023-05-17T04:40:52.475Z,28.20
2023-05-17T04:43:20.113Z,28.20
2023-05-17T04:45:48.026Z,28.20
2023-05-17T04:48:16.770Z,28.20
2023-05-17T04:50:47.104Z,28.20
2023-05-17T04:53:16.628Z,28.20
2023-05-17T04:55:44.902Z,28.20
2023-05-17T04:58:13.091Z,28.20
2023-05-17T05:00:40.826Z,28.20
2023-05-17T05:03:08.667Z,28.20
2023-05-17T05:05:36.641Z,28.20
2023-05-17T05:08:04.443Z,28.20
2023-05-17T05:10:33.520Z,28.20
2023-05-17T05:13:01.242Z,28.20
2023-05-17T05:15:29.292Z,28.20
2023-05-17T05:17:57.218Z,28.20
2023-05-17T05:20:27.729Z,28.20
2023-05-17T05:22:57.396Z,28.20
2023-05-17T05:25:25.103Z,28.20
2023-05-17T05:27:54.122Z,28.20
2023-05-17T05:30:22.923Z,28.20
2023-05-17T05:32:51.065Z,28.20
2023-05-17T05:35:19.336Z,28.20
2023-05-17T05:37:47.094Z,28.20
2023-05-17T05:40:15.590Z,28.20
2023-05-17T05:42:43.254Z,28.20
2023-05-17T05:45:13.254Z,28.20
2023-05-17T05:47:41.053Z,28.20
2023-05-17T05:50:10.415Z,28.20
2023-05-17T05:52:38.209Z,28.20
2023-05-17T05:55:06.839Z,28.20
2023-05-17T05:57:34.656Z,28.20
2023-05-17T06:00:02.341Z,28.20
2023-05-17T06:02:31.663Z,28.20
2023-05-17T06:04:59.398Z,28.20
2023-05-17T06:07:27.118Z,28.20
2023-05-17T06:09:54.788Z,28.20
2023-05-17T06:12:22.435Z,28.30
2023-05-17T06:14:50.185Z,28.30
2023-05-17T06:17:17.852Z,28.30
2023-05-17T06:19:49.158Z,28.30
2023-05-17T06:22:17.034Z,28.30
2023-05-17T06:24:44.737Z,28.30
2023-05-17T06:27:12.729Z,28.30
2023-05-17T06:29:40.534Z,28.30
2023-05-17T06:32:08.681Z,28.30
2023-05-17T06:34:36.435Z,28.30
2023-05-17T06:37:06.371Z,28.30
2023-05-17T06:39:34.105Z,28.40
2023-05-17T06:42:01.843Z,28.40
2023-05-17T06:44:29.572Z,28.40
2023-05-17T06:46:57.551Z,28.40
2023-05-17T06:49:25.469Z,28.40
2023-05-17T06:51:55.676Z,28.40
2023-05-17T06:54:24.835Z,28.40
2023-05-17T06:56:52.516Z,28.40
2023-05-17T06:59:20.183Z,28.40
2023-05-17T07:01:48.143Z,28.40
2023-05-17T07:04:15.858Z,28.50
2023-05-17T07:06:43.686Z,28.50
2023-05-17T07:09:11.329Z,28.50
2023-05-17T07:11:40.448Z,28.50
2023-05-17T07:14:08.137Z,28.50
2023-05-17T07:16:35.892Z,28.50
2023-05-17T07:19:03.669Z,28.50
2023-05-17T07:21:32.000Z,28.50
2023-05-17T07:24:00.147Z,28.50
2023-05-17T07:26:27.902Z,28.50
2023-05-17T07:28:57.021Z,28.50
2023-05-17T07:31:25.602Z,28.50
2023-05-17T07:33:56.773Z,28.50
2023-05-17T07:36:27.418Z,28.50
2023-05-17T07:38:55.429Z,28.50
2023-05-17T07:41:23.420Z,28.60
2023-05-17T07:43:51.415Z,28.60
2023-05-17T07:46:21.227Z,28.60
2023-05-17T07:48:49.040Z,28.60
2023-05-17T07:51:17.168Z,28.60
2023-05-17T07:53:44.838Z,28.60
2023-05-17T07:56:12.499Z,28.60
2023-05-17T07:58:40.162Z,28.60
2023-05-17T08:01:09.664Z,28.60
2023-05-17T08:03:38.722Z,28.60
2023-05-17T08:06:06.655Z,28.60
2023-05-17T08:08:34.593Z,28.60
2023-05-17T08:11:02.283Z,28.60
2023-05-17T08:13:29.944Z,28.60
2023-05-17T08:16:08.934Z,28.60
2023-05-17T08:18:42.822Z,28.60
2023-05-17T08:21:11.233Z,28.60
2023-05-17T08:23:39.304Z,28.60
2023-05-17T08:26:07.216Z,28.60
2023-05-17T08:28:34.888Z,28.60
2023-05-17T08:31:04.199Z,28.60
2023-05-17T08:33:32.729Z,28.60
2023-05-17T08:36:04.318Z,28.60
2023-05-17T08:38:32.001Z,28.60
2023-05-17T08:40:59.954Z,28.60
2023-05-17T08:43:28.552Z,28.60
2023-05-17T08:45:57.734Z,28.60
2023-05-17T08:48:27.599Z,28.60
2023-05-17T08:50:58.003Z,28.60
2023-05-17T08:53:27.237Z,28.60
2023-05-17T08:55:59.136Z,28.60
2023-05-17T08:58:29.312Z,28.60
2023-05-17T09:00:57.402Z,28.60
2023-05-17T09:03:26.432Z,28.60
2023-05-17T09:05:54.556Z,28.70
2023-05-17T09:08:23.350Z,28.70
2023-05-17T09:10:52.438Z,28.70
2023-05-17T09:13:20.126Z,28.70
2023-05-17T09:15:49.573Z,28.70
2023-05-17T09:18:19.406Z,28.70
2023-05-17T09:20:51.668Z,28.70
2023-05-17T09:23:22.392Z,28.70
2023-05-17T09:25:50.847Z,28.70
2023-05-17T09:28:21.311Z,28.70
2023-05-17T09:30:50.324Z,28.70
2023-05-17T09:33:22.795Z,28.70
2023-05-17T09:35:50.536Z,28.70
2023-05-17T09:38:18.251Z,28.70
2023-05-17T09:40:46.776Z,28.70
2023-05-17T09:43:15.384Z,28.70
2023-05-17T09:45:44.410Z,28.70
2023-05-17T09:48:14.694Z,28.70
2023-05-17T09:50:47.163Z,28.70
2023-05-17T09:53:24.158Z,28.70
2023-05-17T09:55:53.248Z,28.70
2023-05-17T09:58:21.181Z,28.70
2023-05-17T10:00:53.293Z,28.70
2023-05-17T10:03:21.379Z,28.70
2023-05-17T10:05:53.115Z,28.70
2023-05-17T10:08:25.960Z,28.60
2023-05-17T10:10:56.734Z,28.60
2023-05-17T10:13:28.894Z,28.70
2023-05-17T10:15:58.498Z,28.60
2023-05-17T10:18:27.108Z,28.60
2023-05-17T10:20:55.148Z,28.60
2023-05-17T10:23:23.377Z,28.60
2023-05-17T10:25:51.594Z,28.60
2023-05-17T10:28:21.253Z,28.70
2023-05-17T10:30:51.300Z,28.60
2023-05-17T10:33:23.003Z,28.60
2023-05-17T10:35:52.127Z,28.60
2023-05-17T10:38:23.938Z,28.60
2023-05-17T10:40:54.951Z,28.60
2023-05-17T10:43:23.797Z,28.70
2023-05-17T10:45:51.957Z,28.60
2023-05-17T10:48:21.490Z,28.70
2023-05-17T10:51:00.718Z,28.70
2023-05-17T10:53:29.379Z,28.70
2023-05-17T10:55:57.138Z,28.60
2023-05-17T10:58:27.779Z,28.70
2023-05-17T11:00:56.148Z,28.70
2023-05-17T11:03:29.386Z,28.60
2023-05-17T11:06:25.349Z,28.70
2023-05-17T11:09:09.974Z,28.60
2023-05-17T11:11:37.725Z,28.60
2023-05-17T11:14:06.529Z,28.60
2023-05-17T11:16:37.179Z,28.60
2023-05-17T11:19:10.529Z,28.60
2023-05-17T11:21:46.803Z,28.60
2023-05-17T11:24:22.059Z,28.60
2023-05-17T11:26:51.495Z,28.60
2023-05-17T11:29:19.188Z,28.60
2023-05-17T11:31:52.184Z,28.60
2023-05-17T11:34:23.396Z,28.60
2023-05-17T11:36:52.967Z,28.60
2023-05-17T11:39:22.691Z,28.60
2023-05-17T11:41:51.821Z,28.60
2023-05-17T11:44:26.108Z,28.60
2023-05-17T11:47:02.908Z,28.60
2023-05-17T11:49:36.444Z,28.60
2023-05-17T11:52:05.077Z,28.60
2023-05-17T11:54:33.146Z,28.60
2023-05-17T11:57:02.829Z,28.60
2023-05-17T11:59:30.519Z,28.60
2023-05-17T12:01:58.191Z,28.60
2023-05-17T12:04:27.711Z,28.60
2023-05-17T12:06:57.968Z,28.60
2023-05-17T12:09:26.605Z,28.60
2023-05-17T12:11:54.546Z,28.60
2023-05-17T12:14:22.247Z,28.60
2023-05-17T12:16:53.157Z,28.60
2023-05-17T12:19:22.198Z,28.60
2023-05-17T12:21:50.674Z,28.60
2023-05-17T12:24:19.774Z,28.60
2023-05-17T12:26:48.769Z,28.60
2023-05-17T12:29:22.790Z,28.60
2023-05-17T12:31:52.857Z,28.60
2023-05-17T12:34:20.941Z,28.60
2023-05-17T12:36:48.862Z,28.60
2023-05-17T12:39:18.119Z,28.60
2023-05-17T12:41:48.697Z,28.60
2023-05-17T12:44:16.899Z,28.60
2023-05-17T12:46:44.923Z,28.60
2023-05-17T12:49:12.906Z,28.60
2023-05-17T12:51:42.127Z,28.60
2023-05-17T12:54:10.078Z,28.60
2023-05-17T12:56:37.783Z,28.60
2023-05-17T12:59:12.408Z,28.60
2023-05-17T13:01:41.460Z,28.60
2023-05-17T13:04:09.447Z,28.60
2023-05-17T13:06:47.751Z,28.60
2023-05-17T13:09:16.462Z,28.60
2023-05-17T13:11:44.135Z,28.60
2023-05-17T13:14:13.558Z,28.60
2023-05-17T13:16:42.798Z,28.60
2023-05-17T13:19:14.895Z,28.60
2023-05-17T13:21:42.799Z,28.60
2023-05-17T13:24:11.032Z,28.60
2023-05-17T13:26:38.764Z,28.60
2023-05-17T13:29:06.477Z,28.50
2023-05-17T13:31:35.881Z,28.60
2023-05-17T13:34:03.705Z,28.50
2023-05-17T13:36:31.886Z,28.50
2023-05-17T13:39:01.853Z,28.50
2023-05-17T13:41:29.599Z,28.50
2023-05-17T13:43:57.700Z,28.50
2023-05-17T13:46:25.543Z,28.50
2023-05-17T13:48:54.636Z,28.50
2023-05-17T13:51:22.428Z,28.50
2023-05-17T13:53:50.101Z,28.50
2023-05-17T13:56:18.204Z,28.50
2023-05-17T13:58:46.326Z,28.50
2023-05-17T14:01:14.016Z,28.50
2023-05-17T14:03:41.842Z,28.50
2023-05-17T14:06:11.179Z,28.50
2023-05-17T14:08:38.985Z,28.50
2023-05-17T14:11:07.061Z,28.50
2023-05-17T14:13:34.807Z,28.50
2023-05-17T14:16:02.625Z,28.50
2023-05-17T14:18:31.408Z,28.50
2023-05-17T14:20:59.393Z,28.50
2023-05-17T14:23:28.404Z,28.50
2023-05-17T14:25:57.630Z,28.50
2023-05-17T14:28:25.621Z,28.50
2023-05-17T14:30:53.343Z,28.50
2023-05-17T14:33:21.334Z,28.50
2023-05-17T14:35:49.101Z,28.50
2023-05-17T14:38:17.319Z,28.50
2023-05-17T14:40:46.404Z,28.50
2023-05-17T14:43:14.160Z,28.50
2023-05-17T14:45:41.821Z,28.50
2023-05-17T14:48:09.656Z,28.50
2023-05-17T14:50:37.433Z,28.50
2023-05-17T14:53:05.127Z,28.50
2023-05-17T14:55:33.003Z,28.50
2023-05-17T14:58:02.703Z,28.50
2023-05-17T15:00:30.418Z,28.50
2023-05-17T15:02:58.205Z,28.50
2023-05-17T15:05:26.029Z,28.50
2023-05-17T15:07:54.136Z,28.50
2023-05-17T15:10:21.914Z,28.50
2023-05-17T15:12:49.876Z,28.50
2023-05-17T15:15:20.613Z,28.50
2023-05-17T15:17:48.451Z,28.50
2023-05-17T15:20:16.991Z,28.50
2023-05-17T15:22:44.759Z,28.50
2023-05-17T15:25:12.453Z,28.50
2023-05-17T15:27:40.153Z,28.50
2023-05-17T15:30:10.256Z,28.50
2023-05-17T15:32:40.441Z,28.50
2023-05-17T15:35:08.970Z,28.50
2023-05-17T15:37:36.906Z,28.50
2023-05-17T15:40:09.329Z,28.50
2023-05-17T15:42:37.015Z,28.50
2023-05-17T15:45:05.106Z,28.50
2023-05-17T15:50:06.106Z,28.50
2023-05-17T15:52:34.263Z,28.50
2023-05-17T15:55:01.952Z,28.50
2023-05-17T15:57:29.635Z,28.50
2023-05-17T15:59:57.579Z,28.50
2023-05-17T16:02:25.469Z,28.50
2023-05-17T16:04:53.170Z,28.50
2023-05-17T16:07:22.763Z,28.50
2023-05-17T16:09:50.425Z,28.50
2023-05-17T16:12:18.083Z,28.50
2023-05-17T16:14:45.980Z,28.50
2023-05-17T16:17:13.652Z,28.50
2023-05-17T16:19:41.502Z,28.50
2023-05-17T16:22:09.622Z,28.50
2023-05-17T16:24:38.780Z,28.50
2023-05-17T16:27:08.154Z,28.50
2023-05-17T16:29:39.908Z,28.50
2023-05-17T16:32:08.567Z,28.50
2023-05-17T16:34:36.393Z,28.50
2023-05-17T16:37:04.994Z,28.50
2023-05-17T16:39:33.373Z,28.50
2023-05-17T16:42:02.773Z,28.50
2023-05-17T16:44:30.448Z,28.50
2023-05-17T16:46:58.159Z,28.50
2023-05-17T16:49:26.378Z,28.50
2023-05-17T16:51:54.094Z,28.50
2023-05-17T16:54:21.845Z,28.50
2023-05-17T16:56:49.549Z,28.50
2023-05-17T16:59:18.561Z,28.50
2023-05-17T17:01:46.623Z,28.50
2023-05-17T17:04:14.407Z,28.50
2023-05-17T17:06:42.332Z,28.50
2023-05-17T17:09:11.693Z,28.50
2023-05-17T17:11:39.635Z,28.50
2023-05-17T17:14:07.542Z,28.50
2023-05-17T17:16:36.732Z,28.50
2023-05-17T17:19:04.814Z,28.50
2023-05-17T17:21:36.464Z,28.50
2023-05-17T17:24:05.462Z,28.40
2023-05-17T17:26:35.201Z,28.40
2023-05-17T17:29:03.908Z,28.40
2023-05-17T17:31:31.789Z,28.50
2023-05-17T17:34:00.865Z,28.40
2023-05-17T17:36:30.961Z,28.40
2023-05-17T17:38:58.695Z,28.40
2023-05-17T17:41:26.681Z,28.40
2023-05-17T17:43:54.662Z,28.40
2023-05-17T17:46:22.576Z,28.40
2023-05-17T17:48:50.493Z,28.40
2023-05-17T17:51:19.563Z,28.40
2023-05-17T17:53:48.835Z,28.40
2023-05-17T17:56:16.661Z,28.40
2023-05-17T17:58:45.157Z,28.40
2023-05-17T18:01:12.943Z,28.40
2023-05-17T18:03:40.689Z,28.40
2023-05-17T18:06:08.566Z,28.40
2023-05-17T18:08:37.584Z,28.40
2023-05-17T18:11:05.450Z,28.40
2023-05-17T18:13:33.146Z,28.40
2023-05-17T18:16:01.050Z,28.40
2023-05-17T18:18:28.908Z,28.40
2023-05-17T18:20:56.741Z,28.40
2023-05-17T18:23:25.109Z,28.40
2023-05-17T18:25:54.148Z,28.40
2023-05-17T18:28:33.455Z,28.40
2023-05-17T18:31:08.772Z,28.40
2023-05-17T18:33:36.496Z,28.40
2023-05-17T18:36:04.478Z,28.40
2023-05-17T18:38:32.137Z,28.40
2023-05-17T18:41:01.234Z,28.40
2023-05-17T18:43:30.940Z,28.40
2023-05-17T18:45:58.580Z,28.40
2023-05-17T18:48:26.650Z,28.40
2023-05-17T18:50:54.397Z,28.40
2023-05-17T18:53:22.055Z,28.40
2023-05-17T18:55:49.707Z,28.40
2023-05-17T18:58:19.015Z,28.30
2023-05-17T19:00:48.469Z,28.30
2023-05-17T19:03:16.250Z,28.30
2023-05-17T19:05:43.955Z,28.30
2023-05-17T19:08:11.672Z,28.30
2023-05-17T19:10:39.394Z,28.30
2023-05-17T19:13:07.309Z,28.30
2023-05-17T19:15:36.412Z,28.30
2023-05-17T19:18:04.229Z,28.30
2023-05-17T19:20:32.312Z,28.30
2023-05-17T19:23:00.694Z,28.30
2023-05-17T19:25:28.539Z,28.30
2023-05-17T19:27:56.195Z,28.30
2023-05-17T19:30:23.876Z,28.30
2023-05-17T19:32:52.920Z,28.30
2023-05-17T19:35:20.580Z,28.30
2023-05-17T19:37:48.301Z,28.30
2023-05-17T19:40:18.838Z,28.30
2023-05-17T19:42:46.874Z,28.30
2023-05-17T19:45:14.576Z,28.30
2023-05-17T19:47:42.804Z,28.30
2023-05-17T19:50:12.511Z,28.30
2023-05-17T19:52:40.417Z,28.30
2023-05-17T19:55:08.253Z,28.30
2023-05-17T19:57:35.939Z,28.30
2023-05-17T20:00:04.894Z,28.30
2023-05-17T20:02:32.719Z,28.30
2023-05-17T20:05:02.194Z,28.20
2023-05-17T20:07:31.299Z,28.20
2023-05-17T20:09:59.026Z,28.20
2023-05-17T20:12:27.050Z,28.20
2023-05-17T20:14:55.090Z,28.20
2023-05-17T20:17:22.986Z,28.20
2023-05-17T20:19:52.595Z,28.20
2023-05-17T20:22:21.291Z,28.20
2023-05-17T20:24:50.299Z,28.20
2023-05-17T20:27:17.980Z,28.20
2023-05-17T20:29:45.845Z,28.20
2023-05-17T20:32:13.638Z,28.20
2023-05-17T20:34:41.412Z,28.20
2023-05-17T20:37:09.170Z,28.20
2023-05-17T20:39:36.849Z,28.20
2023-05-17T20:42:07.704Z,28.20
2023-05-17T20:44:35.734Z,28.20
2023-05-17T20:47:04.888Z,28.20
2023-05-17T20:49:32.733Z,28.20
2023-05-17T20:52:03.421Z,28.20
2023-05-17T20:54:31.381Z,28.20
2023-05-17T20:57:00.911Z,28.20
2023-05-17T20:59:29.928Z,28.20
2023-05-17T21:01:57.618Z,28.20
2023-05-17T21:04:25.604Z,28.20
2023-05-17T21:06:58.073Z,28.20
2023-05-17T21:09:25.789Z,28.20
2023-05-17T21:11:53.573Z,28.20
2023-05-17T21:14:21.265Z,28.20
2023-05-17T21:16:50.330Z,28.20
2023-05-17T21:19:18.058Z,28.20
2023-05-17T21:21:45.932Z,28.20
2023-05-17T21:24:13.625Z,28.20
2023-05-17T21:26:41.455Z,28.20
2023-05-17T21:29:09.184Z,28.20
2023-05-17T21:31:37.169Z,28.20
2023-05-17T21:34:06.243Z,28.20
2023-05-17T21:36:34.026Z,28.20
2023-05-17T21:39:01.736Z,28.20
2023-05-17T21:41:29.416Z,28.20
2023-05-17T21:43:57.097Z,28.20
2023-05-17T21:46:24.924Z,28.20
2023-05-17T21:48:53.082Z,28.20
2023-05-17T21:51:22.726Z,28.10
2023-05-17T21:53:51.224Z,28.20
2023-05-17T21:56:19.226Z,28.20
2023-05-17T21:58:46.918Z,28.20
2023-05-17T22:01:15.040Z,28.20
2023-05-17T22:03:43.655Z,28.20
2023-05-17T22:06:11.766Z,28.20
2023-05-17T22:08:42.485Z,28.10
2023-05-17T22:11:11.155Z,28.20
2023-05-17T22:13:38.876Z,28.20
2023-05-17T22:16:07.478Z,28.20
2023-05-17T22:18:36.335Z,28.20
2023-05-17T22:21:04.229Z,28.20
2023-05-17T22:23:32.347Z,28.20
2023-05-17T22:26:01.402Z,28.20
2023-05-17T22:28:29.118Z,28.20
2023-05-17T22:30:57.035Z,28.20
2023-05-17T22:33:24.688Z,28.20
2023-05-17T22:35:53.593Z,28.20
2023-05-17T22:38:23.301Z,28.20
2023-05-17T22:40:51.059Z,28.20
2023-05-17T22:43:21.469Z,28.20
2023-05-17T22:45:50.254Z,28.20
2023-05-17T22:48:20.037Z,28.20
2023-05-17T22:50:48.363Z,28.20
2023-05-17T22:53:17.524Z,28.20
2023-05-17T22:55:48.855Z,28.20
2023-05-17T22:58:17.233Z,28.20
2023-05-17T23:00:46.476Z,28.20
2023-05-17T23:03:14.957Z,28.20
2023-05-17T23:05:43.308Z,28.20
2023-05-17T23:08:11.106Z,28.20
2023-05-17T23:10:39.473Z,28.20
2023-05-17T23:13:07.130Z,28.20
2023-05-17T23:15:37.209Z,28.20
2023-05-17T23:18:06.590Z,28.20
2023-05-17T23:20:35.005Z,28.20
2023-05-17T23:23:02.785Z,28.20
2023-05-17T23:25:31.573Z,28.20
2023-05-17T23:27:59.448Z,28.20
2023-05-17T23:30:27.876Z,28.20
2023-05-17T23:32:55.644Z,28.20
2023-05-17T23:35:25.170Z,28.20
2023-05-17T23:37:52.944Z,28.20
2023-05-17T23:40:20.721Z,28.20
2023-05-17T23:42:48.429Z,28.20
2023-05-17T23:45:16.152Z,28.20
2023-05-17T23:47:44.440Z,28.20
2023-05-17T23:50:12.401Z,28.20
2023-05-17T23:52:43.532Z,28.20
2023-05-17T23:55:12.142Z,28.20
2023-05-17T23:57:41.336Z,28.20
